Terminal Aerodrome Forecast
Issued by NWS

Home | Current Version | Previous Version | Text Only | Print | Product List | Glossary On
Versions: 1 2 3 4 5 6 7 8 9 10 11 12 13 14 15 16 17 18
834
FTUS43 KICT 271139
TAFHUT
TAF
KHUT 271139Z 2712/2812 04006KT P6SM SCT050
      TEMPO 2712/2713 4SM BR
     FM271700 13008KT P6SM SCT035=

USA.gov is the U.S. government's official web portal to all federal, state and local government web resources and services.